Time;durP1;ratioP1;P1;durP2;ratioP2;P2;SDS_P1;SDS_P2;PMS_P1;PMS_P2;Temp;Humidity;BMP_temperature;BMP_pressure;BME280_temperature;BME280_humidity;BME280_pressure;Samples;Min_cycle;Max_cycle;Signal;HPM_P1;HPM_P2
2022/07/05 00:00:16;;;;;;;2.57;1.27;;;;;;;;;;4977343;28;20619;-73
2022/07/05 00:02:42;;;;;;;1.80;1.20;;;;;;;;;;4969928;28;20347;-73
2022/07/05 00:05:08;;;;;;;2.27;1.30;;;;;;;;;;4968407;28;20185;-73
2022/07/05 00:07:34;;;;;;;1.53;1.13;;;;;;;;;;4971592;28;20184;-73
2022/07/05 00:10:01;;;;;;;2.73;1.30;;;;;;;;;;4969944;28;20191;-73
2022/07/05 00:12:30;;;;;;;1.83;1.37;;;;;;;;;;4969880;28;20360;-73
2022/07/05 00:14:56;;;;;;;4.23;1.70;;;;;;;;;;4971133;28;20191;-73
2022/07/05 00:17:22;;;;;;;2.20;1.43;;;;;;;;;;4976122;28;20193;-73
2022/07/05 00:19:48;;;;;;;4.50;1.60;;;;;;;;;;4976462;28;20194;-73
2022/07/05 00:22:15;;;;;;;2.67;1.30;;;;;;;;;;4972155;28;20215;-73
2022/07/05 00:24:41;;;;;;;1.40;1.30;;;;;;;;;;4971231;28;20212;-73
2022/07/05 00:27:07;;;;;;;1.53;1.20;;;;;;;;;;4968838;28;20190;-73
2022/07/05 00:29:33;;;;;;;1.20;1.10;;;;;;;;;;4968330;28;20216;-73
2022/07/05 00:31:59;;;;;;;1.17;1.07;;;;;;;;;;4968495;28;20262;-73
2022/07/05 00:34:26;;;;;;;2.10;1.20;;;;;;;;;;4970469;28;20184;-73
2022/07/05 00:36:52;;;;;;;2.17;1.20;;;;;;;;;;4967788;28;20191;-73
2022/07/05 00:39:18;;;;;;;1.30;1.10;;;;;;;;;;4966741;28;20181;-73
2022/07/05 00:41:44;;;;;;;1.70;1.10;;;;;;;;;;4980559;28;20279;-73
2022/07/05 00:44:13;;;;;;;3.00;1.27;;;;;;;;;;4950742;28;20189;-73
2022/07/05 00:46:40;;;;;;;1.20;1.10;;;;;;;;;;4967158;28;20320;-73
2022/07/05 00:49:06;;;;;;;4.10;1.17;;;;;;;;;;4968343;28;20205;-73
2022/07/05 00:51:34;;;;;;;2.07;1.13;;;;;;;;;;4973903;28;20581;-73
2022/07/05 00:54:00;;;;;;;3.47;1.43;;;;;;;;;;4966326;28;20196;-73
2022/07/05 00:56:27;;;;;;;3.03;1.33;;;;;;;;;;4977135;28;20184;-73
2022/07/05 00:58:53;;;;;;;2.67;1.20;;;;;;;;;;4969526;28;20185;-73
2022/07/05 01:01:19;;;;;;;1.50;1.30;;;;;;;;;;4962800;28;20232;-73
2022/07/05 01:03:46;;;;;;;2.13;1.30;;;;;;;;;;4971246;28;20203;-73
2022/07/05 01:06:13;;;;;;;1.47;1.30;;;;;;;;;;4958603;28;20203;-73
2022/07/05 01:08:40;;;;;;;2.00;1.23;;;;;;;;;;4969412;28;20199;-73
2022/07/05 01:11:07;;;;;;;3.10;1.53;;;;;;;;;;4969299;28;20267;-73
2022/07/05 01:13:34;;;;;;;3.20;1.63;;;;;;;;;;4938068;28;20216;-73
2022/07/05 01:16:01;;;;;;;3.10;1.50;;;;;;;;;;4975046;28;20320;-73
2022/07/05 01:18:28;;;;;;;1.50;1.30;;;;;;;;;;4969953;28;20184;-73
2022/07/05 01:20:54;;;;;;;1.50;1.40;;;;;;;;;;4971230;28;20668;-73
2022/07/05 01:23:21;;;;;;;4.87;1.33;;;;;;;;;;4958245;28;20208;-73
2022/07/05 01:25:48;;;;;;;1.57;1.23;;;;;;;;;;4968724;28;20219;-73
2022/07/05 01:28:14;;;;;;;1.90;1.30;;;;;;;;;;4976330;28;20656;-73
2022/07/05 01:30:41;;;;;;;3.13;1.40;;;;;;;;;;4977203;28;20207;-73
2022/07/05 01:33:08;;;;;;;1.63;1.33;;;;;;;;;;4971948;28;20840;-73
2022/07/05 01:35:35;;;;;;;2.27;1.40;;;;;;;;;;4955201;28;20201;-73
2022/07/05 01:38:01;;;;;;;2.90;1.70;;;;;;;;;;4967319;28;20191;-73
2022/07/05 01:40:27;;;;;;;1.60;1.30;;;;;;;;;;4968895;28;20212;-73
2022/07/05 01:42:54;;;;;;;2.20;1.20;;;;;;;;;;4968851;28;20245;-73
2022/07/05 01:48:07;;;;;;;2.30;1.40;;;;;;;;;;4970539;28;20239;-73
2022/07/05 01:50:35;;;;;;;2.50;1.27;;;;;;;;;;4975181;28;20652;-73
2022/07/05 01:53:01;;;;;;;2.10;1.40;;;;;;;;;;4970721;28;20226;-73
2022/07/05 01:55:28;;;;;;;1.97;1.50;;;;;;;;;;4954086;28;20292;-73
2022/07/05 01:57:54;;;;;;;1.57;1.40;;;;;;;;;;4956646;28;20231;-73
2022/07/05 02:00:20;;;;;;;1.80;1.43;;;;;;;;;;4957722;28;20208;-73
2022/07/05 02:02:47;;;;;;;3.73;1.50;;;;;;;;;;4957477;28;20336;-73
2022/07/05 02:05:13;;;;;;;2.17;1.50;;;;;;;;;;4973609;28;20563;-73
2022/07/05 02:07:48;;;;;;;2.07;1.40;;;;;;;;;;4975596;28;20185;-73
2022/07/05 02:10:14;;;;;;;1.67;1.40;;;;;;;;;;4969956;28;20188;-73
2022/07/05 02:12:41;;;;;;;2.10;1.43;;;;;;;;;;4972802;28;20216;-73
2022/07/05 02:15:08;;;;;;;2.17;1.50;;;;;;;;;;4978178;28;20184;-73
2022/07/05 02:17:34;;;;;;;2.33;1.67;;;;;;;;;;4956413;28;20212;-73
2022/07/05 02:20:00;;;;;;;2.53;1.60;;;;;;;;;;4977098;28;20262;-73
2022/07/05 02:22:27;;;;;;;2.03;1.40;;;;;;;;;;4958958;28;20283;-73
2022/07/05 02:24:54;;;;;;;1.57;1.47;;;;;;;;;;4972166;28;20210;-73
2022/07/05 02:27:24;;;;;;;1.33;1.20;;;;;;;;;;4963935;28;20583;-73
2022/07/05 02:29:51;;;;;;;1.57;1.30;;;;;;;;;;4958167;28;20279;-73
2022/07/05 02:32:22;;;;;;;1.53;1.20;;;;;;;;;;4964456;28;20203;-73
2022/07/05 02:34:48;;;;;;;1.60;1.50;;;;;;;;;;4979152;28;20251;-73
2022/07/05 02:37:15;;;;;;;1.77;1.30;;;;;;;;;;4958068;28;20633;-73
2022/07/05 02:39:41;;;;;;;2.33;1.60;;;;;;;;;;4971883;28;20181;-73
2022/07/05 02:42:09;;;;;;;5.50;1.60;;;;;;;;;;4958305;28;20216;-73
2022/07/05 02:44:36;;;;;;;2.27;1.60;;;;;;;;;;4977294;28;20173;-73
2022/07/05 02:47:03;;;;;;;2.47;1.50;;;;;;;;;;4959561;28;20176;-73
2022/07/05 02:49:32;;;;;;;4.07;1.60;;;;;;;;;;4980621;28;20188;-73
2022/07/05 02:51:59;;;;;;;1.87;1.70;;;;;;;;;;4950811;28;20220;-73
2022/07/05 02:54:25;;;;;;;1.70;1.60;;;;;;;;;;4978973;28;20189;-73
2022/07/05 02:56:52;;;;;;;2.30;1.57;;;;;;;;;;4956784;28;20286;-73
2022/07/05 02:59:19;;;;;;;3.10;1.60;;;;;;;;;;4979923;28;20576;-73
2022/07/05 03:01:45;;;;;;;2.40;1.33;;;;;;;;;;4973506;28;20696;-73
2022/07/05 03:04:14;;;;;;;4.53;1.90;;;;;;;;;;4959563;28;20181;-73
2022/07/05 03:06:47;;;;;;;2.33;1.80;;;;;;;;;;4957184;28;20204;-73
2022/07/05 03:09:13;;;;;;;2.80;1.60;;;;;;;;;;4961347;28;20188;-73
2022/07/05 03:11:40;;;;;;;2.00;1.60;;;;;;;;;;4957139;28;20303;-73
2022/07/05 03:14:07;;;;;;;3.17;1.77;;;;;;;;;;4958770;28;20661;-73
2022/07/05 03:16:34;;;;;;;3.63;1.67;;;;;;;;;;4955422;28;20699;-73
2022/07/05 03:19:00;;;;;;;2.77;1.60;;;;;;;;;;4972489;28;20196;-73
2022/07/05 03:21:26;;;;;;;2.13;1.60;;;;;;;;;;4974721;28;20224;-73
2022/07/05 03:23:53;;;;;;;2.80;1.40;;;;;;;;;;4956441;28;20185;-73
2022/07/05 03:26:19;;;;;;;3.27;1.87;;;;;;;;;;4960284;28;20199;-73
2022/07/05 03:28:46;;;;;;;2.20;1.40;;;;;;;;;;4956638;28;20204;-73
2022/07/05 03:31:13;;;;;;;4.00;1.63;;;;;;;;;;4976432;28;20211;-73
2022/07/05 03:33:42;;;;;;;2.43;1.50;;;;;;;;;;4956311;28;20195;-73
2022/07/05 03:36:10;;;;;;;2.80;1.40;;;;;;;;;;4956137;28;20193;-73
2022/07/05 03:38:38;;;;;;;1.83;1.50;;;;;;;;;;4972787;28;20189;-73
2022/07/05 03:41:05;;;;;;;1.93;1.53;;;;;;;;;;4958882;28;20578;-73
2022/07/05 03:43:31;;;;;;;3.43;1.90;;;;;;;;;;4969094;28;20184;-73
2022/07/05 03:45:57;;;;;;;4.07;1.93;;;;;;;;;;4959803;28;20185;-73
2022/07/05 03:48:27;;;;;;;2.67;1.63;;;;;;;;;;4956455;28;20199;-73
2022/07/05 03:50:53;;;;;;;3.63;1.70;;;;;;;;;;4962191;28;20188;-73
2022/07/05 03:53:19;;;;;;;2.47;1.57;;;;;;;;;;4973315;28;20637;-73
2022/07/05 03:55:46;;;;;;;2.80;1.80;;;;;;;;;;4955298;28;20185;-73
2022/07/05 03:58:13;;;;;;;2.07;1.77;;;;;;;;;;4971100;28;20184;-73
2022/07/05 04:00:40;;;;;;;2.70;1.80;;;;;;;;;;4956707;28;20212;-73
2022/07/05 04:03:09;;;;;;;4.30;2.27;;;;;;;;;;4970239;28;20220;-73
2022/07/05 04:05:36;;;;;;;4.20;2.57;;;;;;;;;;4972280;28;20185;-73
2022/07/05 04:08:04;;;;;;;4.10;2.50;;;;;;;;;;4971793;28;20680;-73
2022/07/05 04:10:38;;;;;;;4.23;2.00;;;;;;;;;;4974061;28;20193;-73
2022/07/05 04:13:04;;;;;;;3.63;2.20;;;;;;;;;;4978228;28;20204;-73
2022/07/05 04:15:31;;;;;;;4.43;2.00;;;;;;;;;;4955873;28;20196;-73
2022/07/05 04:18:00;;;;;;;3.10;1.80;;;;;;;;;;4951097;28;20231;-73
2022/07/05 04:20:29;;;;;;;2.47;2.10;;;;;;;;;;4952697;28;20287;-73
2022/07/05 04:22:56;;;;;;;2.83;1.77;;;;;;;;;;4954045;28;20204;-73
2022/07/05 04:25:23;;;;;;;3.93;2.33;;;;;;;;;;4971669;28;20188;-73
2022/07/05 04:28:05;;;;;;;3.37;2.53;;;;;;;;;;4967458;28;20277;-73
2022/07/05 04:30:34;;;;;;;2.77;2.03;;;;;;;;;;4969237;28;20537;-73
2022/07/05 04:33:00;;;;;;;4.60;1.97;;;;;;;;;;4955307;28;20219;-73
2022/07/05 04:35:27;;;;;;;3.20;1.67;;;;;;;;;;4971242;28;20574;-73
2022/07/05 04:37:54;;;;;;;2.70;1.70;;;;;;;;;;4948055;28;20370;-73
2022/07/05 04:40:21;;;;;;;2.40;1.80;;;;;;;;;;4965515;28;20303;-73
2022/07/05 04:42:47;;;;;;;2.63;1.70;;;;;;;;;;4953599;28;20207;-73
2022/07/05 04:45:16;;;;;;;3.10;1.50;;;;;;;;;;4966533;28;20188;-73
2022/07/05 04:47:42;;;;;;;1.63;1.40;;;;;;;;;;4961540;28;20184;-73
2022/07/05 04:50:09;;;;;;;2.63;2.10;;;;;;;;;;4971493;28;20771;-73
2022/07/05 04:52:35;;;;;;;4.90;2.60;;;;;;;;;;4971005;28;20207;-72
2022/07/05 04:55:02;;;;;;;2.90;2.60;;;;;;;;;;4970090;28;20637;-73
2022/07/05 04:57:28;;;;;;;3.23;2.50;;;;;;;;;;4969091;28;20191;-73
2022/07/05 04:59:54;;;;;;;4.80;2.97;;;;;;;;;;4970190;28;20710;-74
2022/07/05 05:02:20;;;;;;;3.20;2.63;;;;;;;;;;4967837;28;20208;-73
2022/07/05 05:04:46;;;;;;;3.03;2.70;;;;;;;;;;4971009;28;20180;-74
2022/07/05 05:07:12;;;;;;;3.73;2.70;;;;;;;;;;4969578;28;20175;-73
2022/07/05 05:09:39;;;;;;;6.03;2.90;;;;;;;;;;4971270;28;20194;-73
2022/07/05 05:12:05;;;;;;;3.70;2.77;;;;;;;;;;4960473;28;20314;-73
2022/07/05 05:14:31;;;;;;;3.30;3.00;;;;;;;;;;4950642;28;20192;-73
2022/07/05 05:16:57;;;;;;;3.27;2.90;;;;;;;;;;4967031;28;20219;-72
2022/07/05 05:19:24;;;;;;;4.33;3.03;;;;;;;;;;4968729;28;20177;-73
2022/07/05 05:21:50;;;;;;;3.20;2.73;;;;;;;;;;4968127;28;20213;-73
2022/07/05 05:24:16;;;;;;;2.40;2.20;;;;;;;;;;4968049;28;20181;-73
2022/07/05 05:26:42;;;;;;;3.03;1.70;;;;;;;;;;4964534;28;20181;-73
2022/07/05 05:29:08;;;;;;;4.77;1.70;;;;;;;;;;4967985;28;20196;-73
2022/07/05 05:31:34;;;;;;;1.87;1.40;;;;;;;;;;4967428;28;20204;-73
2022/07/05 05:34:01;;;;;;;1.80;1.70;;;;;;;;;;4967322;28;20192;-73
2022/07/05 05:36:27;;;;;;;3.57;1.67;;;;;;;;;;4966649;28;20184;-73
2022/07/05 05:38:53;;;;;;;2.33;2.00;;;;;;;;;;4967903;28;20315;-74
2022/07/05 05:41:19;;;;;;;3.20;1.90;;;;;;;;;;4968082;28;20205;-73
2022/07/05 05:43:45;;;;;;;1.90;1.70;;;;;;;;;;4968526;28;20211;-73
2022/07/05 05:46:11;;;;;;;2.40;1.70;;;;;;;;;;4969157;28;20181;-73
2022/07/05 05:48:38;;;;;;;2.00;1.70;;;;;;;;;;4968533;28;20556;-73
2022/07/05 05:51:04;;;;;;;2.73;1.83;;;;;;;;;;4968729;28;20184;-73
2022/07/05 05:53:31;;;;;;;3.07;1.60;;;;;;;;;;4966727;28;21662;-73
2022/07/05 05:55:57;;;;;;;4.90;1.80;;;;;;;;;;4968752;28;20241;-74
2022/07/05 05:58:24;;;;;;;2.60;1.87;;;;;;;;;;4970150;28;20189;-74
2022/07/05 06:00:52;;;;;;;1.90;1.60;;;;;;;;;;4967868;28;20201;-74
2022/07/05 06:03:22;;;;;;;2.57;1.70;;;;;;;;;;4970768;28;20762;-73
2022/07/05 06:05:48;;;;;;;2.20;1.80;;;;;;;;;;4970450;28;20633;-73
2022/07/05 06:08:14;;;;;;;2.93;1.63;;;;;;;;;;4969008;28;20204;-73
2022/07/05 06:10:41;;;;;;;4.30;1.67;;;;;;;;;;4967377;28;20251;-73
2022/07/05 06:13:08;;;;;;;2.40;1.90;;;;;;;;;;4968215;28;20210;-73
2022/07/05 06:15:35;;;;;;;2.13;1.80;;;;;;;;;;4969521;28;20185;-73
2022/07/05 06:18:02;;;;;;;1.60;1.50;;;;;;;;;;4968980;28;20723;-73
2022/07/05 06:20:29;;;;;;;2.63;1.80;;;;;;;;;;4970183;28;20222;-73
2022/07/05 06:22:56;;;;;;;3.13;1.83;;;;;;;;;;4951000;28;20275;-73
2022/07/05 06:25:22;;;;;;;3.40;1.80;;;;;;;;;;4970387;28;20224;-78
2022/07/05 06:27:50;;;;;;;4.87;2.40;;;;;;;;;;4953238;28;20236;-73
2022/07/05 06:30:18;;;;;;;2.60;2.03;;;;;;;;;;4969124;28;20236;-75
2022/07/05 06:32:45;;;;;;;2.80;1.83;;;;;;;;;;4969269;28;20696;-73
2022/07/05 06:35:11;;;;;;;2.70;1.70;;;;;;;;;;4971866;28;20266;-73
2022/07/05 06:37:47;;;;;;;5.23;1.90;;;;;;;;;;4973654;28;20616;-74
2022/07/05 06:40:14;;;;;;;5.33;2.30;;;;;;;;;;4969662;28;20211;-72
2022/07/05 06:42:41;;;;;;;4.10;2.00;;;;;;;;;;4968147;28;20208;-72
2022/07/05 06:45:08;;;;;;;4.30;2.00;;;;;;;;;;4980054;28;20187;-72
2022/07/05 06:47:35;;;;;;;2.43;1.80;;;;;;;;;;4975607;28;20180;-72
2022/07/05 06:50:05;;;;;;;4.50;2.73;;;;;;;;;;4973531;28;20207;-72
2022/07/05 06:52:32;;;;;;;3.33;2.00;;;;;;;;;;4966888;28;21091;-72
2022/07/05 06:54:59;;;;;;;3.50;2.00;;;;;;;;;;4972032;28;20184;-72
2022/07/05 06:57:25;;;;;;;2.80;2.00;;;;;;;;;;4971282;28;20530;-72
2022/07/05 06:59:52;;;;;;;3.67;2.30;;;;;;;;;;4969442;28;20260;-72
2022/07/05 07:02:19;;;;;;;2.00;1.80;;;;;;;;;;4967812;28;20227;-72
2022/07/05 07:04:45;;;;;;;1.70;1.60;;;;;;;;;;4968238;28;20260;-72
2022/07/05 07:09:57;;;;;;;3.33;1.60;;;;;;;;;;4968785;28;20271;-72
2022/07/05 07:12:23;;;;;;;2.13;1.80;;;;;;;;;;4970542;28;20208;-72
2022/07/05 07:14:49;;;;;;;4.70;1.67;;;;;;;;;;4972914;28;20183;-73
2022/07/05 07:17:15;;;;;;;9.17;2.17;;;;;;;;;;4969996;28;20184;-72
2022/07/05 07:19:41;;;;;;;2.73;2.10;;;;;;;;;;4971411;28;20184;-72
2022/07/05 07:22:08;;;;;;;3.20;2.03;;;;;;;;;;4966615;28;20231;-72
2022/07/05 07:24:34;;;;;;;2.77;2.23;;;;;;;;;;4971116;28;20221;-72
2022/07/05 07:27:03;;;;;;;2.47;2.10;;;;;;;;;;4966850;28;20265;-73
2022/07/05 07:29:30;;;;;;;2.83;2.13;;;;;;;;;;4969594;28;20238;-72
2022/07/05 07:31:57;;;;;;;3.90;1.90;;;;;;;;;;4968810;28;20207;-72
2022/07/05 07:34:23;;;;;;;2.53;1.97;;;;;;;;;;4969548;28;20192;-72
2022/07/05 07:36:50;;;;;;;2.80;1.93;;;;;;;;;;4970980;28;20192;-71
2022/07/05 07:39:16;;;;;;;2.73;1.70;;;;;;;;;;4969734;28;20185;-71
2022/07/05 07:41:42;;;;;;;7.10;1.70;;;;;;;;;;4969281;28;20673;-72
2022/07/05 07:44:08;;;;;;;2.90;1.83;;;;;;;;;;4971173;28;20180;-71
2022/07/05 07:46:35;;;;;;;3.97;1.80;;;;;;;;;;4970467;28;22268;-71
2022/07/05 07:49:01;;;;;;;4.33;1.70;;;;;;;;;;4970491;28;20185;-71
2022/07/05 07:51:27;;;;;;;2.50;1.63;;;;;;;;;;4970792;28;20212;-71
2022/07/05 07:53:54;;;;;;;2.97;1.70;;;;;;;;;;4971737;28;20188;-71
2022/07/05 07:56:20;;;;;;;3.07;1.73;;;;;;;;;;4970933;28;20192;-71
2022/07/05 07:58:47;;;;;;;2.30;1.70;;;;;;;;;;4976339;28;20255;-72
2022/07/05 08:01:14;;;;;;;2.57;1.60;;;;;;;;;;4972636;28;20224;-71
2022/07/05 08:03:43;;;;;;;2.33;1.70;;;;;;;;;;4973424;28;20259;-71
2022/07/05 08:06:10;;;;;;;2.10;1.50;;;;;;;;;;4974680;28;20745;-71
2022/07/05 08:08:38;;;;;;;3.63;1.77;;;;;;;;;;4973784;28;20239;-71
2022/07/05 08:11:04;;;;;;;1.90;1.50;;;;;;;;;;4970282;28;20375;-71
2022/07/05 08:13:31;;;;;;;1.97;1.50;;;;;;;;;;4972839;28;20570;-71
2022/07/05 08:15:57;;;;;;;4.10;1.60;;;;;;;;;;4970863;28;20683;-72
2022/07/05 08:23:53;;;;;;;2.40;1.67;;;;;;;;;;4969590;28;20219;-71
2022/07/05 08:26:20;;;;;;;4.40;1.60;;;;;;;;;;4970868;28;20179;-72
2022/07/05 08:28:46;;;;;;;3.20;1.70;;;;;;;;;;4971429;28;20326;-72
2022/07/05 08:31:12;;;;;;;2.07;1.60;;;;;;;;;;4959545;28;20599;-72
2022/07/05 08:33:38;;;;;;;2.57;1.60;;;;;;;;;;4970442;28;20259;-72
2022/07/05 08:36:04;;;;;;;2.77;1.50;;;;;;;;;;4974887;28;20199;-72
2022/07/05 08:38:30;;;;;;;3.17;1.60;;;;;;;;;;4981004;28;20189;-72
2022/07/05 08:40:57;;;;;;;3.00;1.60;;;;;;;;;;4970730;28;21018;-72
2022/07/05 08:43:23;;;;;;;3.13;1.50;;;;;;;;;;4968849;28;20243;-72
2022/07/05 08:45:50;;;;;;;2.50;1.40;;;;;;;;;;4974020;28;20255;-72
2022/07/05 08:48:17;;;;;;;3.07;1.67;;;;;;;;;;4968197;28;20185;-72
2022/07/05 08:50:46;;;;;;;1.70;1.50;;;;;;;;;;4964985;28;20565;-72
2022/07/05 08:53:13;;;;;;;2.43;1.60;;;;;;;;;;4969506;28;20215;-72
2022/07/05 08:55:39;;;;;;;2.23;1.50;;;;;;;;;;4968773;28;20184;-72
2022/07/05 08:58:06;;;;;;;2.00;1.50;;;;;;;;;;4974291;28;20234;-72
2022/07/05 09:00:32;;;;;;;1.70;1.40;;;;;;;;;;4971356;28;20282;-71
2022/07/05 09:02:59;;;;;;;3.33;1.40;;;;;;;;;;4974064;28;20204;-72
2022/07/05 09:05:26;;;;;;;1.57;1.43;;;;;;;;;;4970516;28;20181;-72
2022/07/05 09:07:58;;;;;;;3.30;1.50;;;;;;;;;;4966801;28;20258;-72
2022/07/05 09:10:28;;;;;;;1.60;1.50;;;;;;;;;;4979124;28;20188;-72
2022/07/05 09:12:55;;;;;;;1.90;1.60;;;;;;;;;;4971258;28;20684;-72
2022/07/05 09:15:21;;;;;;;3.10;1.40;;;;;;;;;;4970965;28;20263;-72
2022/07/05 09:17:48;;;;;;;1.57;1.30;;;;;;;;;;4969262;28;20184;-72
2022/07/05 09:20:18;;;;;;;3.80;1.43;;;;;;;;;;4955932;28;20189;-72
2022/07/05 09:22:45;;;;;;;1.80;1.30;;;;;;;;;;4969622;28;20215;-72
2022/07/05 09:25:13;;;;;;;3.23;1.47;;;;;;;;;;4969831;28;20264;-72
2022/07/05 09:27:59;;;;;;;1.53;1.30;;;;;;;;;;4967849;28;20176;-73
2022/07/05 09:30:30;;;;;;;1.90;1.37;;;;;;;;;;4967975;28;20540;-72
2022/07/05 09:33:22;;;;;;;2.70;1.23;;;;;;;;;;4964318;28;20212;-72
2022/07/05 09:35:54;;;;;;;1.80;1.40;;;;;;;;;;4965502;28;20303;-73
2022/07/05 09:38:21;;;;;;;2.20;1.47;;;;;;;;;;4968454;28;20316;-75
2022/07/05 09:40:52;;;;;;;1.77;1.30;;;;;;;;;;4972111;28;20270;-73
2022/07/05 09:43:25;;;;;;;2.17;1.20;;;;;;;;;;4965121;28;20563;-73
2022/07/05 09:45:59;;;;;;;4.47;1.50;;;;;;;;;;4972296;28;20602;-74
2022/07/05 09:48:26;;;;;;;3.30;1.60;;;;;;;;;;4967598;28;20185;-72
2022/07/05 09:50:52;;;;;;;5.63;1.30;;;;;;;;;;4965952;28;20252;-73
2022/07/05 09:53:19;;;;;;;1.53;1.20;;;;;;;;;;4969882;28;20279;-72
2022/07/05 09:56:01;;;;;;;1.90;1.20;;;;;;;;;;4970993;28;20192;-72
2022/07/05 09:58:28;;;;;;;1.93;1.50;;;;;;;;;;4967229;28;20668;-74
2022/07/05 10:00:54;;;;;;;3.30;1.30;;;;;;;;;;4968763;28;20783;-74
2022/07/05 10:03:20;;;;;;;1.83;1.30;;;;;;;;;;4968312;28;20987;-74
2022/07/05 10:05:47;;;;;;;1.87;1.33;;;;;;;;;;4953907;28;20188;-74
2022/07/05 10:08:13;;;;;;;1.30;1.10;;;;;;;;;;4967890;28;20213;-74
2022/07/05 10:10:41;;;;;;;2.97;1.30;;;;;;;;;;4922348;28;20283;-74
2022/07/05 10:13:08;;;;;;;2.73;1.13;;;;;;;;;;4968045;28;20205;-73
2022/07/05 10:15:35;;;;;;;2.50;1.40;;;;;;;;;;4969518;28;20181;-74
2022/07/05 10:18:07;;;;;;;2.50;1.30;;;;;;;;;;4968608;28;20290;-74
2022/07/05 10:20:40;;;;;;;3.73;1.23;;;;;;;;;;4951487;28;20883;-76
2022/07/05 10:23:16;;;;;;;3.57;1.53;;;;;;;;;;4967050;28;20701;-74
2022/07/05 10:25:47;;;;;;;3.13;1.43;;;;;;;;;;4969940;28;20188;-76
2022/07/05 10:28:14;;;;;;;2.57;1.30;;;;;;;;;;4969727;28;20196;-73
2022/07/05 10:30:40;;;;;;;2.43;1.40;;;;;;;;;;4972946;28;20235;-73
2022/07/05 10:33:07;;;;;;;1.30;1.20;;;;;;;;;;4973859;28;20212;-73
2022/07/05 10:35:34;;;;;;;1.73;1.40;;;;;;;;;;4960115;28;20184;-73
2022/07/05 10:38:01;;;;;;;1.67;1.20;;;;;;;;;;4971885;28;20687;-73
2022/07/05 10:40:28;;;;;;;2.50;1.40;;;;;;;;;;4969726;28;20291;-73
2022/07/05 10:42:59;;;;;;;3.90;1.80;;;;;;;;;;4975696;28;20192;-73
2022/07/05 10:45:29;;;;;;;2.23;1.40;;;;;;;;;;4968574;28;22035;-73
2022/07/05 10:48:15;;;;;;;1.50;1.33;;;;;;;;;;4968017;28;20197;-73
2022/07/05 10:50:45;;;;;;;2.27;1.30;;;;;;;;;;4979627;28;20196;-72
2022/07/05 10:53:12;;;;;;;1.73;1.30;;;;;;;;;;4976333;28;20228;-73
2022/07/05 10:56:04;;;;;;;2.30;1.33;;;;;;;;;;4970021;28;20185;-73
2022/07/05 10:58:32;;;;;;;2.73;1.40;;;;;;;;;;4968953;28;20421;-73
2022/07/05 11:01:17;;;;;;;2.70;1.30;;;;;;;;;;4971832;28;20205;-73
2022/07/05 11:03:47;;;;;;;1.40;1.20;;;;;;;;;;4970765;28;20185;-73
2022/07/05 11:06:24;;;;;;;2.27;1.20;;;;;;;;;;4973113;28;20255;-73
2022/07/05 11:08:59;;;;;;;2.90;1.30;;;;;;;;;;4971800;28;20204;-73
2022/07/05 11:11:27;;;;;;;3.20;1.17;;;;;;;;;;4960073;28;20561;-73
2022/07/05 11:13:58;;;;;;;3.33;1.20;;;;;;;;;;4968716;28;20266;-73
2022/07/05 11:16:37;;;;;;;3.87;1.50;;;;;;;;;;4942934;28;20201;-73
2022/07/05 11:19:07;;;;;;;1.67;1.30;;;;;;;;;;4972437;28;20267;-74
2022/07/05 11:21:34;;;;;;;2.77;1.20;;;;;;;;;;4972209;28;20212;-73
2022/07/05 11:24:30;;;;;;;1.47;1.20;;;;;;;;;;4973735;28;20184;-73
2022/07/05 11:27:00;;;;;;;2.90;1.20;;;;;;;;;;4959501;28;20197;-73
2022/07/05 11:29:44;;;;;;;4.97;1.30;;;;;;;;;;4971375;28;20197;-73
2022/07/05 11:32:15;;;;;;;4.33;1.30;;;;;;;;;;4973188;28;20283;-73
2022/07/05 11:34:42;;;;;;;1.77;1.30;;;;;;;;;;4969717;28;20316;-75
2022/07/05 11:37:24;;;;;;;1.70;1.20;;;;;;;;;;4966916;28;20184;-76
2022/07/05 11:40:11;;;;;;;3.07;1.70;;;;;;;;;;4969468;28;20196;-81
2022/07/05 11:42:39;;;;;;;3.50;1.30;;;;;;;;;;4970849;28;20204;-76
2022/07/05 11:45:09;;;;;;;4.27;1.90;;;;;;;;;;4973070;28;20211;-78
2022/07/05 11:47:36;;;;;;;2.43;1.40;;;;;;;;;;4972975;28;20192;-78
2022/07/05 11:50:02;;;;;;;2.73;1.70;;;;;;;;;;4968210;28;20942;-75
2022/07/05 11:52:29;;;;;;;2.30;1.30;;;;;;;;;;4971377;28;20209;-73
2022/07/05 11:54:56;;;;;;;2.13;1.30;;;;;;;;;;4970252;28;20197;-74
2022/07/05 11:57:23;;;;;;;1.90;1.30;;;;;;;;;;4968938;28;20547;-78
2022/07/05 11:59:49;;;;;;;1.63;1.33;;;;;;;;;;4969043;28;20200;-75
2022/07/05 12:02:15;;;;;;;1.93;1.50;;;;;;;;;;4968932;28;20241;-75
2022/07/05 12:04:47;;;;;;;1.60;1.17;;;;;;;;;;4970085;28;20206;-74
2022/07/05 12:07:24;;;;;;;1.63;1.20;;;;;;;;;;4966366;28;20191;-74
2022/07/05 12:12:42;;;;;;;2.33;1.17;;;;;;;;;;4959903;28;20274;-75
2022/07/05 12:15:09;;;;;;;1.50;1.03;;;;;;;;;;4967669;28;20192;-75
2022/07/05 12:17:35;;;;;;;1.77;0.90;;;;;;;;;;4965725;28;20222;-75
2022/07/05 12:20:02;;;;;;;3.13;1.23;;;;;;;;;;4967710;28;20273;-75
2022/07/05 12:22:32;;;;;;;4.00;1.30;;;;;;;;;;4965077;28;20220;-75
2022/07/05 12:24:58;;;;;;;1.53;1.20;;;;;;;;;;4967222;28;20242;-76
2022/07/05 12:27:25;;;;;;;2.63;1.20;;;;;;;;;;4969461;28;20222;-77
2022/07/05 12:29:52;;;;;;;1.33;1.10;;;;;;;;;;4967519;28;20266;-76
2022/07/05 12:32:18;;;;;;;1.83;1.20;;;;;;;;;;4969775;28;20213;-75
2022/07/05 12:34:44;;;;;;;1.93;1.30;;;;;;;;;;4967615;28;20188;-77
2022/07/05 12:37:10;;;;;;;1.83;1.20;;;;;;;;;;4969979;28;20191;-75
2022/07/05 12:39:36;;;;;;;2.37;1.20;;;;;;;;;;4967555;28;20241;-74
2022/07/05 12:42:03;;;;;;;2.13;1.30;;;;;;;;;;4968740;28;20213;-74
2022/07/05 12:44:29;;;;;;;3.07;1.37;;;;;;;;;;4967452;28;20185;-74
2022/07/05 12:47:07;;;;;;;1.70;1.40;;;;;;;;;;4969757;28;20705;-73
2022/07/05 12:49:53;;;;;;;2.47;1.40;;;;;;;;;;4965880;28;20180;-73
2022/07/05 12:52:19;;;;;;;2.37;1.40;;;;;;;;;;4966972;28;20202;-75
2022/07/05 13:00:16;;;;;;;2.07;1.20;;;;;;;;;;4968059;28;20186;-75
2022/07/05 13:02:45;;;;;;;2.40;1.30;;;;;;;;;;4964989;28;20260;-75
2022/07/05 13:05:21;;;;;;;1.53;1.10;;;;;;;;;;4968483;28;20268;-75
2022/07/05 13:07:47;;;;;;;1.80;1.20;;;;;;;;;;4967662;28;20279;-77
2022/07/05 13:10:15;;;;;;;1.10;1.00;;;;;;;;;;4965056;28;20187;-77
2022/07/05 13:12:41;;;;;;;2.27;1.07;;;;;;;;;;4968095;28;20567;-77
2022/07/05 13:15:08;;;;;;;3.77;1.20;;;;;;;;;;4965362;28;20225;-77
2022/07/05 13:17:34;;;;;;;2.07;1.30;;;;;;;;;;4964818;28;20256;-77
2022/07/05 13:20:03;;;;;;;3.13;1.30;;;;;;;;;;4968778;28;20556;-83
2022/07/05 13:22:29;;;;;;;1.50;1.00;;;;;;;;;;4958653;28;20286;-78
2022/07/05 13:24:55;;;;;;;1.53;1.17;;;;;;;;;;4964036;28;20197;-78
2022/07/05 13:27:21;;;;;;;1.70;1.10;;;;;;;;;;4970294;28;20567;-77
2022/07/05 13:29:48;;;;;;;5.97;1.27;;;;;;;;;;4965300;28;20199;-76
2022/07/05 13:32:19;;;;;;;2.90;1.40;;;;;;;;;;4966689;28;20222;-77
2022/07/05 13:34:48;;;;;;;2.20;1.50;;;;;;;;;;4968227;28;20304;-79
2022/07/05 13:37:15;;;;;;;1.30;1.10;;;;;;;;;;4968744;28;20560;-76
2022/07/05 13:39:41;;;;;;;1.63;1.10;;;;;;;;;;4967283;28;20552;-76
2022/07/05 13:42:07;;;;;;;1.93;1.27;;;;;;;;;;4968780;28;20214;-76
2022/07/05 13:44:34;;;;;;;1.43;1.20;;;;;;;;;;4967075;28;20188;-76
2022/07/05 13:47:00;;;;;;;2.97;1.20;;;;;;;;;;4968038;28;20205;-76
2022/07/05 13:49:27;;;;;;;3.23;1.30;;;;;;;;;;4968120;28;21724;-76
2022/07/05 13:51:53;;;;;;;2.20;1.10;;;;;;;;;;4968765;28;20279;-77
2022/07/05 13:54:19;;;;;;;2.33;1.20;;;;;;;;;;4972633;28;20671;-77
2022/07/05 13:56:45;;;;;;;1.20;1.10;;;;;;;;;;4973728;28;20201;-78
2022/07/05 13:59:11;;;;;;;2.05;1.10;;;;;;;;;;4972930;28;20182;-77
2022/07/05 14:01:39;;;;;;;2.55;1.30;;;;;;;;;;4972413;28;20214;-77
2022/07/05 14:04:05;;;;;;;1.83;1.20;;;;;;;;;;4971347;28;20203;-77
2022/07/05 14:06:32;;;;;;;3.50;1.10;;;;;;;;;;4972291;28;20191;-76
2022/07/05 14:08:58;;;;;;;2.07;1.20;;;;;;;;;;4971463;28;20186;-77
2022/07/05 14:11:26;;;;;;;2.58;1.15;;;;;;;;;;4973175;28;20190;-76
2022/07/05 14:13:55;;;;;;;2.55;1.20;;;;;;;;;;4941854;28;20198;-77
2022/07/05 14:16:22;;;;;;;2.60;1.33;;;;;;;;;;4970528;28;20191;-77
2022/07/05 14:18:49;;;;;;;2.80;1.33;;;;;;;;;;4969054;28;20196;-79
2022/07/05 14:21:17;;;;;;;1.67;1.58;;;;;;;;;;4966139;28;20220;-78
2022/07/05 14:23:46;;;;;;;5.30;1.40;;;;;;;;;;4971873;28;20185;-77
2022/07/05 14:26:13;;;;;;;3.20;1.40;;;;;;;;;;4968349;28;20189;-77
2022/07/05 14:28:39;;;;;;;1.15;1.05;;;;;;;;;;4971863;28;20196;-75
2022/07/05 14:31:05;;;;;;;2.42;1.30;;;;;;;;;;4973050;28;20202;-75
2022/07/05 14:33:31;;;;;;;1.98;1.52;;;;;;;;;;4967861;28;20691;-75
2022/07/05 14:35:57;;;;;;;1.42;1.30;;;;;;;;;;4973018;28;20283;-75
2022/07/05 14:38:24;;;;;;;1.77;1.30;;;;;;;;;;4971927;28;20651;-75
2022/07/05 14:40:50;;;;;;;3.03;1.58;;;;;;;;;;4971994;28;20226;-75
2022/07/05 14:43:16;;;;;;;3.45;1.50;;;;;;;;;;4970886;28;20207;-75
2022/07/05 14:45:42;;;;;;;2.28;1.30;;;;;;;;;;4956532;28;20537;-75
2022/07/05 14:48:08;;;;;;;1.52;1.30;;;;;;;;;;4972769;28;20633;-75
2022/07/05 14:50:34;;;;;;;1.98;1.30;;;;;;;;;;4972094;28;20196;-76
2022/07/05 14:53:07;;;;;;;3.20;1.30;;;;;;;;;;4969790;28;20216;-76
2022/07/05 14:55:34;;;;;;;2.15;1.40;;;;;;;;;;4970716;28;20660;-76
2022/07/05 14:58:00;;;;;;;2.30;1.40;;;;;;;;;;4970570;28;20192;-75
2022/07/05 15:00:26;;;;;;;2.97;1.35;;;;;;;;;;4970243;28;20180;-76
2022/07/05 15:02:52;;;;;;;1.65;1.27;;;;;;;;;;4971599;28;20726;-76
2022/07/05 15:05:18;;;;;;;1.48;1.35;;;;;;;;;;4968504;28;20184;-75